Time;durP1;ratioP1;P1;durP2;ratioP2;P2;SDS_P1;SDS_P2;PMS_P1;PMS_P2;Temp;Humidity;BMP_temperature;BMP_pressure;BME280_temperature;BME280_humidity;BME280_pressure;Samples;Min_cycle;Max_cycle;Signal;HPM_P1;HPM_P2
2022/07/23 00:01:22;;;;;;;6.00;4.20;;;14.80;99.90;;;;;;4904544;29;20543;-55
2022/07/23 00:03:48;;;;;;;6.78;4.38;;;14.80;99.90;;;;;;4905377;29;20048;-56
2022/07/23 00:06:14;;;;;;;7.45;3.95;;;14.80;99.90;;;;;;4907171;29;20043;-56
2022/07/23 00:08:40;;;;;;;7.38;4.75;;;14.90;99.90;;;;;;4913092;29;20452;-58
2022/07/23 00:11:06;;;;;;;7.72;4.00;;;14.90;99.90;;;;;;4905361;29;20071;-58
2022/07/23 00:13:32;;;;;;;7.25;4.22;;;15.00;99.90;;;;;;4887879;29;20056;-58
2022/07/23 00:15:58;;;;;;;6.85;4.38;;;14.90;99.90;;;;;;4903750;29;20079;-59
2022/07/23 00:18:23;;;;;;;9.02;3.90;;;15.00;99.90;;;;;;4904820;29;20047;-58
2022/07/23 00:20:49;;;;;;;7.53;4.00;;;15.10;99.90;;;;;;4905383;29;20036;-60
2022/07/23 00:23:15;;;;;;;5.53;4.00;;;15.00;99.90;;;;;;4905596;29;20394;-58
2022/07/23 00:25:40;;;;;;;6.55;4.20;;;14.90;99.90;;;;;;4904672;29;20584;-58
2022/07/23 00:28:06;;;;;;;8.60;4.60;;;14.90;99.90;;;;;;4904790;29;20075;-58
2022/07/23 00:30:32;;;;;;;8.35;4.30;;;14.90;99.90;;;;;;4904245;29;20052;-58
2022/07/23 00:33:01;;;;;;;8.13;4.25;;;14.80;99.90;;;;;;4904774;29;20103;-58
2022/07/23 00:35:29;;;;;;;6.72;4.38;;;14.80;99.90;;;;;;4904065;29;20051;-58
2022/07/23 00:37:56;;;;;;;7.78;4.22;;;14.70;99.90;;;;;;4904721;29;20123;-56
2022/07/23 00:40:22;;;;;;;7.55;4.22;;;14.80;99.90;;;;;;4904075;29;20152;-58
2022/07/23 00:42:48;;;;;;;10.25;4.38;;;14.70;99.90;;;;;;4904611;29;20050;-58
2022/07/23 00:45:14;;;;;;;8.63;5.00;;;14.70;99.90;;;;;;4904147;29;20484;-57
2022/07/23 00:47:40;;;;;;;6.75;4.60;;;14.70;99.90;;;;;;4904197;29;20044;-58
2022/07/23 00:50:07;;;;;;;8.57;4.30;;;14.70;99.90;;;;;;4904680;29;20136;-58
2022/07/23 00:52:35;;;;;;;9.00;4.20;;;14.70;99.90;;;;;;4903410;29;20044;-58
2022/07/23 00:55:01;;;;;;;8.45;4.53;;;14.70;99.90;;;;;;4904763;29;20127;-59
2022/07/23 00:57:26;;;;;;;8.27;4.25;;;14.80;99.90;;;;;;4904229;29;20134;-59
2022/07/23 00:59:52;;;;;;;7.72;4.10;;;14.70;99.90;;;;;;4903563;29;20524;-58
2022/07/23 01:02:17;;;;;;;7.82;3.92;;;14.70;99.90;;;;;;4903334;29;20126;-59
2022/07/23 01:04:43;;;;;;;8.10;4.07;;;14.70;99.90;;;;;;4905099;29;20040;-59
2022/07/23 01:07:09;;;;;;;5.97;4.00;;;14.60;99.90;;;;;;4911119;29;20499;-58
2022/07/23 01:09:36;;;;;;;7.07;4.15;;;14.60;99.90;;;;;;4906601;29;20044;-58
2022/07/23 01:12:02;;;;;;;8.15;4.05;;;14.50;99.90;;;;;;4903583;29;20127;-58
2022/07/23 01:14:28;;;;;;;7.45;4.10;;;14.50;99.90;;;;;;4903429;29;20095;-58
2022/07/23 01:16:54;;;;;;;6.90;3.70;;;14.50;99.90;;;;;;4904416;29;20075;-58
2022/07/23 01:19:20;;;;;;;7.55;3.50;;;14.50;99.90;;;;;;4913514;29;20475;-58
2022/07/23 01:21:48;;;;;;;7.40;3.38;;;14.50;99.90;;;;;;4922817;29;20052;-59
2022/07/23 01:24:15;;;;;;;5.82;3.33;;;14.50;99.90;;;;;;4923437;29;20205;-59
2022/07/23 01:26:43;;;;;;;8.73;3.78;;;14.60;99.90;;;;;;4906537;29;20414;-58
2022/07/23 01:29:10;;;;;;;6.07;3.78;;;14.60;99.90;;;;;;4922321;29;20050;-55
2022/07/23 01:31:35;;;;;;;10.65;3.85;;;14.50;99.90;;;;;;4922844;29;20044;-56
2022/07/23 01:34:01;;;;;;;8.40;3.53;;;14.40;99.90;;;;;;4923283;29;20430;-56
2022/07/23 01:36:27;;;;;;;8.07;3.58;;;14.40;99.90;;;;;;4922662;29;20044;-55
2022/07/23 01:38:53;;;;;;;8.50;3.58;;;14.30;99.90;;;;;;4922328;29;20513;-56
2022/07/23 01:41:19;;;;;;;7.85;4.10;;;14.30;99.90;;;;;;4922444;29;20471;-56
2022/07/23 01:43:45;;;;;;;8.25;3.78;;;14.30;99.90;;;;;;4923344;29;20130;-56
2022/07/23 01:46:11;;;;;;;6.50;3.83;;;14.30;99.90;;;;;;4922475;29;20352;-56
2022/07/23 01:48:37;;;;;;;6.65;3.90;;;14.20;99.90;;;;;;4922070;29;20462;-55
2022/07/23 01:51:03;;;;;;;5.43;3.80;;;14.20;99.90;;;;;;4925036;29;20061;-55
2022/07/23 01:53:31;;;;;;;5.80;3.53;;;14.30;99.90;;;;;;4926158;29;20062;-55
2022/07/23 01:55:59;;;;;;;7.43;3.75;;;14.20;99.90;;;;;;4926447;29;20074;-56
2022/07/23 01:58:26;;;;;;;10.40;4.03;;;14.20;99.90;;;;;;4925997;29;20126;-56
2022/07/23 02:00:53;;;;;;;7.13;4.03;;;14.10;99.90;;;;;;4908926;29;20047;-56
2022/07/23 02:03:19;;;;;;;7.47;3.50;;;14.20;99.90;;;;;;4908714;29;20111;-55
2022/07/23 02:05:45;;;;;;;7.47;3.83;;;14.10;99.90;;;;;;4924678;29;20858;-55
2022/07/23 02:08:10;;;;;;;7.75;3.88;;;14.10;99.90;;;;;;4918059;29;20040;-56
2022/07/23 02:10:36;;;;;;;12.70;4.45;;;14.00;99.90;;;;;;4906763;29;20040;-55
2022/07/23 02:13:02;;;;;;;4.18;3.47;;;14.00;99.90;;;;;;4906959;29;20063;-55
2022/07/23 02:15:28;;;;;;;15.60;4.32;;;13.90;99.90;;;;;;4905956;29;20826;-55
2022/07/23 02:17:54;;;;;;;7.75;4.03;;;13.80;99.90;;;;;;4907316;29;20044;-55
2022/07/23 02:20:20;;;;;;;8.55;4.05;;;13.80;99.90;;;;;;4906752;29;20396;-55
2022/07/23 02:22:46;;;;;;;6.10;3.85;;;13.80;99.90;;;;;;4906943;29;20059;-57
2022/07/23 02:25:11;;;;;;;8.93;3.90;;;13.80;99.90;;;;;;4906664;29;20567;-56
2022/07/23 02:27:37;;;;;;;6.22;3.50;;;13.70;99.90;;;;;;4906819;29;20043;-55
2022/07/23 02:30:03;;;;;;;11.55;4.05;;;13.70;99.90;;;;;;4906542;29;20048;-56
2022/07/23 02:32:29;;;;;;;6.63;3.65;;;13.60;99.90;;;;;;4906440;29;20104;-56
2022/07/23 02:34:55;;;;;;;6.13;3.80;;;13.60;99.90;;;;;;4906252;29;20086;-55
2022/07/23 02:37:20;;;;;;;6.78;3.78;;;13.50;99.90;;;;;;4906412;29;20587;-55
2022/07/23 02:39:48;;;;;;;9.02;4.47;;;13.50;99.90;;;;;;4906697;29;20052;-58
2022/07/23 02:42:14;;;;;;;8.48;4.13;;;13.40;99.90;;;;;;4906817;29;20055;-58
2022/07/23 02:44:40;;;;;;;5.53;4.00;;;13.40;99.90;;;;;;4905287;29;20115;-58
2022/07/23 02:47:05;;;;;;;7.47;4.50;;;13.30;99.90;;;;;;4906681;29;20295;-57
2022/07/23 02:49:31;;;;;;;7.78;4.55;;;13.30;99.90;;;;;;4906233;29;20048;-57
2022/07/23 02:51:57;;;;;;;9.52;4.38;;;13.20;99.90;;;;;;4906228;29;20253;-58
2022/07/23 02:54:22;;;;;;;8.93;4.88;;;13.20;99.90;;;;;;4905830;29;20051;-57
2022/07/23 02:56:50;;;;;;;9.20;5.00;;;13.20;99.90;;;;;;4906878;29;20047;-57
2022/07/23 02:59:16;;;;;;;9.73;5.10;;;13.20;99.90;;;;;;4888656;29;20063;-59
2022/07/23 03:01:41;;;;;;;7.60;4.68;;;13.10;99.90;;;;;;4889277;29;20527;-56
2022/07/23 03:04:07;;;;;;;8.35;4.63;;;13.10;99.90;;;;;;4906068;29;20393;-57
2022/07/23 03:06:33;;;;;;;7.03;4.70;;;13.10;99.90;;;;;;4908428;29;20500;-58
2022/07/23 03:08:59;;;;;;;9.82;4.65;;;13.00;99.90;;;;;;4914819;29;20048;-58
2022/07/23 03:11:24;;;;;;;10.63;5.15;;;12.90;99.90;;;;;;4905202;29;20048;-58
2022/07/23 03:13:50;;;;;;;8.07;5.00;;;12.90;99.90;;;;;;4888460;29;20147;-58
2022/07/23 03:16:15;;;;;;;9.00;5.18;;;12.90;99.90;;;;;;4905985;29;20863;-58
2022/07/23 03:18:41;;;;;;;6.70;5.03;;;12.70;99.90;;;;;;4906676;29;20052;-56
2022/07/23 03:21:07;;;;;;;8.32;5.05;;;12.70;99.90;;;;;;4905393;29;20036;-57
2022/07/23 03:23:33;;;;;;;10.20;5.68;;;12.70;99.90;;;;;;4905558;29;20070;-57
2022/07/23 03:25:59;;;;;;;9.95;5.93;;;12.70;99.90;;;;;;4888892;29;20044;-57
2022/07/23 03:28:24;;;;;;;8.65;5.32;;;12.60;99.90;;;;;;4905942;29;20112;-58
2022/07/23 03:30:50;;;;;;;8.18;5.55;;;12.60;99.90;;;;;;4904874;29;20135;-57
2022/07/23 03:33:17;;;;;;;6.53;5.07;;;12.60;99.90;;;;;;4905518;29;20178;-59
2022/07/23 03:35:43;;;;;;;15.85;5.45;;;12.60;99.90;;;;;;4906245;29;20720;-58
2022/07/23 03:38:09;;;;;;;10.55;5.55;;;12.60;99.90;;;;;;4888857;29;20448;-57
2022/07/23 03:40:35;;;;;;;11.45;5.82;;;12.60;99.90;;;;;;4904979;29;20036;-57
2022/07/23 03:43:00;;;;;;;9.13;5.68;;;12.60;99.90;;;;;;4905700;29;20539;-57
2022/07/23 03:45:26;;;;;;;7.88;5.75;;;12.60;99.90;;;;;;4904383;29;20478;-57
2022/07/23 03:47:52;;;;;;;8.40;6.22;;;12.60;99.90;;;;;;4905524;29;20054;-56
2022/07/23 03:50:18;;;;;;;9.43;5.22;;;12.60;99.90;;;;;;4904658;29;20044;-56
2022/07/23 03:52:44;;;;;;;8.63;6.10;;;12.60;99.90;;;;;;4888992;29;20052;-56
2022/07/23 03:55:09;;;;;;;12.45;6.80;;;12.60;99.90;;;;;;4905156;29;20514;-57
2022/07/23 03:57:35;;;;;;;11.10;6.05;;;12.50;99.90;;;;;;4905305;29;20167;-56
2022/07/23 04:00:02;;;;;;;8.50;5.90;;;12.50;99.90;;;;;;4904066;29;20135;-57
2022/07/23 04:02:28;;;;;;;11.00;6.03;;;12.50;99.90;;;;;;4888192;29;20052;-57
2022/07/23 04:04:53;;;;;;;9.80;6.28;;;12.50;99.90;;;;;;4905492;29;20052;-58
2022/07/23 04:07:19;;;;;;;9.15;5.97;;;12.60;99.90;;;;;;4912449;29;20060;-57
2022/07/23 04:09:45;;;;;;;11.50;7.22;;;12.50;99.90;;;;;;4907772;29;20044;-57
2022/07/23 04:12:10;;;;;;;9.73;7.00;;;12.60;99.90;;;;;;4905584;29;20124;-58
2022/07/23 04:14:36;;;;;;;12.00;6.70;;;12.60;99.90;;;;;;4882726;29;20475;-57
2022/07/23 04:17:02;;;;;;;9.82;6.55;;;12.60;99.90;;;;;;4885407;29;20059;-57
2022/07/23 04:19:28;;;;;;;11.38;7.03;;;12.70;99.90;;;;;;4884976;29;20048;-57
2022/07/23 04:21:53;;;;;;;9.13;6.85;;;12.80;99.90;;;;;;4885626;29;20456;-58
2022/07/23 04:24:19;;;;;;;7.40;6.32;;;12.80;99.90;;;;;;4884710;29;20665;-58
2022/07/23 04:26:45;;;;;;;10.63;6.90;;;12.80;99.90;;;;;;4885410;29;20055;-57
2022/07/23 04:29:11;;;;;;;9.45;6.40;;;12.90;99.90;;;;;;4885104;29;20056;-58
2022/07/23 04:31:37;;;;;;;9.85;6.85;;;12.90;99.90;;;;;;4885041;29;20975;-56
2022/07/23 04:34:02;;;;;;;10.15;7.00;;;13.00;99.90;;;;;;4885575;29;20852;-57
2022/07/23 04:36:28;;;;;;;10.48;6.95;;;13.00;99.90;;;;;;4884464;29;20052;-58
2022/07/23 04:38:54;;;;;;;11.68;6.95;;;13.10;99.90;;;;;;4884850;29;20449;-56
2022/07/23 04:41:20;;;;;;;14.00;6.82;;;13.10;99.90;;;;;;4884863;29;20052;-56
2022/07/23 04:43:46;;;;;;;7.88;6.85;;;13.20;99.90;;;;;;4884537;29;20548;-58
2022/07/23 04:46:12;;;;;;;14.45;7.22;;;13.30;99.90;;;;;;4884751;29;20052;-57
2022/07/23 04:48:38;;;;;;;9.77;6.82;;;13.40;99.90;;;;;;4884708;29;20128;-57
2022/07/23 04:51:04;;;;;;;13.68;7.18;;;13.50;99.90;;;;;;4884734;29;20076;-57
2022/07/23 04:53:29;;;;;;;11.65;7.40;;;13.50;99.90;;;;;;4884473;29;20127;-57
2022/07/23 04:55:55;;;;;;;11.93;6.82;;;13.50;99.90;;;;;;4884728;29;20556;-56
2022/07/23 04:58:21;;;;;;;13.65;7.20;;;13.60;99.90;;;;;;4884413;29;20670;-59
2022/07/23 05:00:47;;;;;;;11.95;6.60;;;13.60;99.90;;;;;;4884654;29;20127;-58
2022/07/23 05:03:13;;;;;;;12.00;6.75;;;13.70;99.90;;;;;;4885069;29;20132;-58
2022/07/23 05:05:39;;;;;;;12.00;6.63;;;13.80;99.90;;;;;;4884393;29;20120;-57
2022/07/23 05:08:05;;;;;;;13.63;6.50;;;13.70;99.90;;;;;;4894870;29;20083;-58
2022/07/23 05:10:30;;;;;;;13.68;6.72;;;13.70;99.90;;;;;;4884171;29;20043;-57
2022/07/23 05:12:56;;;;;;;11.85;6.60;;;13.70;99.90;;;;;;4850163;29;1107953;-58
2022/07/23 05:15:22;;;;;;;12.00;5.90;;;13.80;99.90;;;;;;4902434;29;20036;-57
2022/07/23 05:17:48;;;;;;;10.02;6.40;;;13.80;99.90;;;;;;4887511;29;20059;-58
2022/07/23 05:20:14;;;;;;;12.63;6.03;;;13.90;99.90;;;;;;4904480;29;20657;-58
2022/07/23 05:22:40;;;;;;;11.02;6.30;;;14.00;99.90;;;;;;4903814;29;20048;-57
2022/07/23 05:25:06;;;;;;;8.27;5.47;;;14.10;99.90;;;;;;4904263;29;20052;-56
2022/07/23 05:27:32;;;;;;;9.65;5.63;;;14.20;99.90;;;;;;4908087;29;20059;-57
2022/07/23 05:29:58;;;;;;;8.25;5.13;;;14.30;99.90;;;;;;4907535;29;20067;-57
2022/07/23 05:32:24;;;;;;;7.10;5.30;;;14.40;99.90;;;;;;4907403;29;20079;-57
2022/07/23 05:34:49;;;;;;;8.45;5.03;;;14.40;99.90;;;;;;4890593;29;20054;-58
2022/07/23 05:37:16;;;;;;;12.38;5.07;;;14.50;99.90;;;;;;4907959;29;20103;-55
2022/07/23 05:39:41;;;;;;;9.95;4.60;;;14.60;99.90;;;;;;4908178;29;20492;-56
2022/07/23 05:42:07;;;;;;;7.53;5.00;;;14.70;99.90;;;;;;4907384;29;20055;-58
2022/07/23 05:44:33;;;;;;;8.90;5.25;;;14.70;99.90;;;;;;4906602;29;20047;-57
2022/07/23 05:46:59;;;;;;;7.32;4.50;;;14.80;99.90;;;;;;4907929;29;20071;-57
2022/07/23 05:49:24;;;;;;;6.15;4.13;;;14.90;99.90;;;;;;4907349;29;20501;-58
2022/07/23 05:51:50;;;;;;;7.85;4.05;;;14.90;99.90;;;;;;4906977;29;20136;-58
2022/07/23 05:54:16;;;;;;;11.05;3.83;;;14.90;99.90;;;;;;4906160;29;20052;-58
2022/07/23 05:56:42;;;;;;;8.27;3.83;;;14.90;99.90;;;;;;4908355;29;20058;-57
2022/07/23 05:59:08;;;;;;;8.85;3.80;;;15.00;99.90;;;;;;4907225;29;20488;-58
2022/07/23 06:01:33;;;;;;;5.88;4.00;;;15.00;99.90;;;;;;4889273;29;20048;-58
2022/07/23 06:03:59;;;;;;;7.90;3.75;;;15.00;99.90;;;;;;4907593;29;20044;-58
2022/07/23 06:06:25;;;;;;;7.63;3.78;;;15.30;99.90;;;;;;4909370;29;20048;-57
2022/07/23 06:08:50;;;;;;;6.97;3.65;;;15.30;99.90;;;;;;4915716;29;20130;-57
2022/07/23 06:11:16;;;;;;;8.18;3.90;;;15.30;99.90;;;;;;4889432;29;20055;-58
2022/07/23 06:13:42;;;;;;;8.50;3.83;;;15.30;99.90;;;;;;4906780;29;20060;-57
2022/07/23 06:16:07;;;;;;;7.00;3.88;;;15.40;99.90;;;;;;4907339;29;20393;-57
2022/07/23 06:18:33;;;;;;;6.53;4.03;;;15.40;99.90;;;;;;4906927;29;20059;-56
2022/07/23 06:20:59;;;;;;;5.95;3.35;;;15.40;99.90;;;;;;4889373;29;20052;-58
2022/07/23 06:23:24;;;;;;;6.38;3.00;;;15.50;99.90;;;;;;4906794;29;20040;-58
2022/07/23 06:25:50;;;;;;;7.00;3.38;;;15.60;99.90;;;;;;4907370;29;20540;-57
2022/07/23 06:28:16;;;;;;;9.07;3.25;;;15.70;99.90;;;;;;4906105;29;20111;-58
2022/07/23 06:30:41;;;;;;;7.82;3.00;;;15.80;99.90;;;;;;4906643;29;20095;-57
2022/07/23 06:33:07;;;;;;;6.65;2.60;;;15.80;99.90;;;;;;4906928;29;20036;-57
2022/07/23 06:35:33;;;;;;;7.05;2.72;;;16.10;99.90;;;;;;4906246;29;20044;-55
2022/07/23 06:37:59;;;;;;;4.70;2.35;;;16.20;99.90;;;;;;4907119;29;20043;-55
2022/07/23 06:40:25;;;;;;;9.90;2.20;;;16.30;99.90;;;;;;4905612;29;20496;-56
2022/07/23 06:42:51;;;;;;;4.20;2.25;;;16.30;99.90;;;;;;4906566;29;20058;-55
2022/07/23 06:45:17;;;;;;;5.78;2.60;;;16.40;99.90;;;;;;4905622;29;20115;-56
2022/07/23 06:47:43;;;;;;;5.68;2.35;;;16.50;99.90;;;;;;4907009;29;20503;-55
2022/07/23 06:50:09;;;;;;;4.80;2.03;;;16.60;99.90;;;;;;4905956;29;20055;-57
2022/07/23 06:52:34;;;;;;;7.82;2.33;;;16.70;99.90;;;;;;4889357;29;20243;-56
2022/07/23 06:55:00;;;;;;;5.88;2.35;;;16.80;99.90;;;;;;4906548;29;20562;-55
2022/07/23 06:57:26;;;;;;;5.60;2.28;;;17.10;99.90;;;;;;4906422;29;20059;-55
2022/07/23 06:59:52;;;;;;;6.05;2.30;;;17.10;99.90;;;;;;4905111;29;20769;-57
2022/07/23 07:02:18;;;;;;;7.15;2.25;;;17.20;99.90;;;;;;4920091;29;20035;-57
2022/07/23 07:04:44;;;;;;;6.22;2.08;;;17.20;99.90;;;;;;4940525;29;20479;-55
2022/07/23 07:07:09;;;;;;;4.82;2.00;;;17.20;99.90;;;;;;4925497;29;20561;-57
2022/07/23 07:09:35;;;;;;;4.13;1.83;;;17.30;99.90;;;;;;4908946;29;20052;-55
2022/07/23 07:12:01;;;;;;;2.53;1.60;;;17.40;99.90;;;;;;4915271;29;20051;-56
2022/07/23 07:14:27;;;;;;;4.30;1.60;;;17.30;99.90;;;;;;4942851;29;20059;-55
2022/07/23 07:16:53;;;;;;;5.20;1.50;;;17.30;99.90;;;;;;4944285;29;20047;-55
2022/07/23 07:19:18;;;;;;;4.03;1.40;;;17.50;99.90;;;;;;4942887;29;20498;-56
2022/07/23 07:21:44;;;;;;;2.35;1.17;;;17.40;99.90;;;;;;4944660;29;20434;-55
2022/07/23 07:24:10;;;;;;;2.50;1.13;;;17.10;99.90;;;;;;4944252;29;20059;-56
2022/07/23 07:26:35;;;;;;;2.92;1.00;;;17.40;99.90;;;;;;4943801;29;20066;-55
2022/07/23 07:29:02;;;;;;;2.42;1.15;;;17.40;99.90;;;;;;4942849;29;20059;-56
2022/07/23 07:31:27;;;;;;;3.47;1.20;;;17.20;99.90;;;;;;4939688;29;20044;-56
2022/07/23 07:33:56;;;;;;;2.70;1.02;;;17.40;99.90;;;;;;4924485;29;20324;-56
2022/07/23 07:36:22;;;;;;;4.78;1.48;;;17.30;99.90;;;;;;4923936;29;20454;-56
2022/07/23 07:38:48;;;;;;;3.40;1.40;;;17.20;99.90;;;;;;4924913;29;20044;-56
2022/07/23 07:41:13;;;;;;;2.38;1.13;;;17.20;99.90;;;;;;4924947;29;20403;-55
2022/07/23 07:43:39;;;;;;;2.92;1.20;;;17.40;99.90;;;;;;4906999;29;20138;-57
2022/07/23 07:46:06;;;;;;;2.03;0.80;;;17.40;99.90;;;;;;4923639;29;20527;-56
2022/07/23 07:48:32;;;;;;;4.07;0.82;;;17.40;99.90;;;;;;4923495;29;20051;-56
2022/07/23 07:50:58;;;;;;;1.70;0.85;;;17.40;99.90;;;;;;4924614;29;20054;-55
2022/07/23 07:53:23;;;;;;;2.42;0.65;;;17.50;99.90;;;;;;4924007;29;20138;-58
2022/07/23 07:55:49;;;;;;;1.98;0.90;;;17.60;99.90;;;;;;4923823;29;20044;-57
2022/07/23 07:58:14;;;;;;;3.25;0.95;;;17.60;99.90;;;;;;4924060;29;20071;-59
2022/07/23 08:00:40;;;;;;;2.08;0.60;;;17.70;99.90;;;;;;4924170;29;20483;-55
2022/07/23 08:03:06;;;;;;;3.65;0.77;;;17.90;99.90;;;;;;4923988;29;20713;-55
2022/07/23 08:05:32;;;;;;;1.23;0.57;;;17.90;99.90;;;;;;4923081;29;20055;-55
2022/07/23 08:07:58;;;;;;;1.23;0.60;;;18.00;99.90;;;;;;4913363;29;20044;-55
2022/07/23 08:10:26;;;;;;;1.95;0.50;;;18.30;99.90;;;;;;4923882;29;20057;-55
2022/07/23 08:12:56;;;;;;;6.93;0.73;;;18.30;99.90;;;;;;4923272;29;20067;-56
2022/07/23 08:15:22;;;;;;;1.98;0.50;;;18.50;99.90;;;;;;4923265;29;20074;-55
2022/07/23 08:17:49;;;;;;;3.15;0.55;;;18.60;99.90;;;;;;4923884;29;20079;-56
2022/07/23 08:20:17;;;;;;;2.72;0.80;;;18.80;99.90;;;;;;4924317;29;20411;-56
2022/07/23 08:22:57;;;;;;;2.97;0.70;;;18.80;99.90;;;;;;4923888;29;20110;-56
2022/07/23 08:25:31;;;;;;;1.45;0.52;;;18.90;99.90;;;;;;4923463;29;20102;-55
2022/07/23 08:28:02;;;;;;;1.35;0.60;;;18.70;99.90;;;;;;4923221;29;20055;-54
2022/07/23 08:30:29;;;;;;;1.75;0.70;;;18.60;99.90;;;;;;4923373;29;20047;-56
2022/07/23 08:33:00;;;;;;;3.05;0.68;;;18.40;99.90;;;;;;4906872;29;20071;-55
2022/07/23 08:35:31;;;;;;;4.22;0.93;;;18.20;99.90;;;;;;4923479;29;20571;-56
2022/07/23 08:37:58;;;;;;;2.45;0.60;;;18.20;99.90;;;;;;4923225;29;20212;-55
2022/07/23 08:40:27;;;;;;;1.48;0.70;;;18.30;99.90;;;;;;4922945;29;20043;-56
2022/07/23 08:42:53;;;;;;;2.53;0.60;;;18.20;99.90;;;;;;4922057;29;20119;-56
2022/07/23 08:45:21;;;;;;;2.03;0.50;;;18.30;99.90;;;;;;4922979;29;20122;-56
2022/07/23 08:47:53;;;;;;;1.20;0.55;;;18.80;99.90;;;;;;4906364;29;20702;-57
2022/07/23 08:50:20;;;;;;;2.63;0.70;;;19.10;99.90;;;;;;4906375;29;20159;-57
2022/07/23 08:52:46;;;;;;;1.95;0.70;;;19.30;99.90;;;;;;4923529;29;20136;-57
2022/07/23 08:55:12;;;;;;;2.35;0.60;;;19.50;99.90;;;;;;4922827;29;20102;-55
2022/07/23 08:57:38;;;;;;;1.02;0.50;;;19.90;99.90;;;;;;4906089;29;20048;-56
2022/07/23 09:00:06;;;;;;;1.42;0.55;;;20.10;99.90;;;;;;4922601;29;20051;-56
2022/07/23 09:02:39;;;;;;;2.83;0.70;;;20.30;99.90;;;;;;4906340;29;20055;-56
2022/07/23 09:05:06;;;;;;;1.92;0.60;;;20.30;99.90;;;;;;4906200;29;20059;-56
2022/07/23 09:07:31;;;;;;;1.65;0.60;;;20.10;99.90;;;;;;4916931;29;20055;-54
2022/07/23 09:10:07;;;;;;;1.40;0.45;;;20.10;99.90;;;;;;4904054;29;20050;-56
2022/07/23 09:12:33;;;;;;;1.63;0.60;;;20.10;99.90;;;;;;4904439;29;20041;-59
2022/07/23 09:15:07;;;;;;;1.42;0.63;;;20.10;99.90;;;;;;4903794;29;20063;-56
2022/07/23 09:17:41;;;;;;;1.33;0.90;;;19.70;99.90;;;;;;4904104;29;20380;-56
2022/07/23 09:20:14;;;;;;;;;;;19.80;99.90;;;;;;4904405;29;20091;-57
2022/07/23 09:22:49;;;;;;;2.60;0.77;;;19.70;99.90;;;;;;4904346;29;19927;-56
2022/07/23 09:25:16;;;;;;;2.10;0.77;;;19.80;99.90;;;;;;4903868;29;20476;-56
2022/07/23 09:27:57;;;;;;;2.33;0.60;;;19.60;99.90;;;;;;4927188;29;20051;-56
2022/07/23 09:30:27;;;;;;;1.90;0.55;;;19.90;99.90;;;;;;4941451;29;20411;-57
2022/07/23 09:33:05;;;;;;;2.13;0.88;;;20.30;99.90;;;;;;4941953;29;20122;-58
2022/07/23 09:35:51;;;;;;;1.88;0.70;;;20.50;99.90;;;;;;4942059;29;20473;-56
2022/07/23 09:38:18;;;;;;;1.60;0.68;;;21.30;99.90;;;;;;4940854;29;20062;-55
2022/07/23 09:40:44;;;;;;;1.75;0.60;;;21.40;99.90;;;;;;4942547;29;20446;-57
2022/07/23 09:43:10;;;;;;;3.17;0.70;;;21.10;99.90;;;;;;4940985;29;20043;-56
2022/07/23 09:45:39;;;;;;;2.92;0.60;;;21.40;99.90;;;;;;4941700;29;20085;-56
2022/07/23 09:48:17;;;;;;;0.95;0.57;;;21.50;99.90;;;;;;4941745;29;20051;-56
2022/07/23 09:50:43;;;;;;;1.83;0.60;;;21.20;99.90;;;;;;4942494;29;20102;-56
2022/07/23 09:53:23;;;;;;;1.65;0.50;;;22.00;99.90;;;;;;4942343;29;20053;-56
2022/07/23 09:55:49;;;;;;;3.20;0.70;;;21.60;99.90;;;;;;4941754;29;20066;-56
2022/07/23 09:58:16;;;;;;;2.05;0.60;;;21.00;99.90;;;;;;4941451;29;20383;-55
2022/07/23 10:00:44;;;;;;;2.42;0.60;;;20.90;99.90;;;;;;4941986;29;20047;-56
2022/07/23 10:03:12;;;;;;;1.75;0.60;;;21.20;99.90;;;;;;4941555;29;20043;-56
2022/07/23 10:05:39;;;;;;;3.25;0.60;;;21.30;99.90;;;;;;4940240;29;20051;-56
2022/07/23 10:08:10;;;;;;;1.33;0.65;;;21.10;99.90;;;;;;4896882;29;20056;-56
2022/07/23 10:10:38;;;;;;;1.60;0.60;;;21.00;99.90;;;;;;4902802;29;20647;-56
2022/07/23 10:16:02;;;;;;;2.95;0.80;;;21.10;99.90;;;;;;4894717;29;20056;-57
2022/07/23 10:18:29;;;;;;;1.45;0.60;;;22.10;99.90;;;;;;4889932;29;20052;-56
2022/07/23 10:20:56;;;;;;;2.13;0.70;;;21.90;99.90;;;;;;4890001;29;20056;-57
2022/07/23 10:23:34;;;;;;;1.55;0.60;;;22.10;99.90;;;;;;4905929;29;20454;-55
2022/07/23 10:26:12;;;;;;;11.05;1.17;;;22.40;99.90;;;;;;4906694;29;20539;-58
2022/07/23 10:29:02;;;;;;;2.17;0.68;;;22.40;99.90;;;;;;4905961;29;20091;-58
2022/07/23 10:31:58;;;;;;;3.15;0.63;;;21.70;99.90;;;;;;4906457;29;20044;-55
2022/07/23 10:34:44;;;;;;;2.42;0.55;;;21.80;99.90;;;;;;4906280;29;20452;-56
2022/07/23 10:37:42;;;;;;;0.90;0.55;;;22.40;99.90;;;;;;4889456;29;20055;-56
2022/07/23 10:40:17;;;;;;;1.23;0.60;;;22.50;99.90;;;;;;4906327;29;20059;-57
2022/07/23 10:42:43;;;;;;;3.00;0.60;;;22.20;99.90;;;;;;4906350;29;20103;-56
2022/07/23 10:45:23;;;;;;;1.95;0.70;;;22.20;99.90;;;;;;4906514;29;20044;-56
2022/07/23 10:47:53;;;;;;;1.60;0.63;;;21.90;99.90;;;;;;4906542;29;20127;-56
2022/07/23 10:50:30;;;;;;;4.25;0.70;;;21.80;99.90;;;;;;4905413;29;20475;-57
2022/07/23 10:53:15;;;;;;;1.98;0.70;;;21.60;99.90;;;;;;4906671;29;20090;-55
2022/07/23 10:55:48;;;;;;;1.63;0.60;;;21.80;99.90;;;;;;4906467;29;20087;-56
2022/07/23 10:58:23;;;;;;;1.70;0.60;;;21.60;99.90;;;;;;4906251;29;20127;-56
2022/07/23 11:00:49;;;;;;;1.60;0.68;;;22.00;99.90;;;;;;4906695;29;20146;-56
2022/07/23 11:03:38;;;;;;;3.58;0.85;;;22.00;99.90;;;;;;4906282;29;20562;-57
2022/07/23 11:06:05;;;;;;;3.80;1.02;;;21.70;99.90;;;;;;4908634;29;20459;-53
2022/07/23 11:08:31;;;;;;;2.63;0.65;;;21.80;99.90;;;;;;4914340;29;20056;-55
2022/07/23 11:11:02;;;;;;;1.65;0.70;;;22.00;99.90;;;;;;4905719;29;20047;-56
2022/07/23 11:13:36;;;;;;;2.22;0.68;;;21.90;99.90;;;;;;4905359;29;20099;-56
2022/07/23 11:16:05;;;;;;;2.58;0.75;;;21.90;99.90;;;;;;4906010;29;20064;-56
2022/07/23 11:18:40;;;;;;;1.83;0.73;;;21.80;99.90;;;;;;4905448;29;21020;-56
2022/07/23 11:21:21;;;;;;;0.90;0.63;;;22.10;99.90;;;;;;4905819;29;20147;-55
2022/07/23 11:24:06;;;;;;;3.88;0.73;;;22.20;99.90;;;;;;4904530;29;20404;-57
2022/07/23 11:26:54;;;;;;;3.47;0.85;;;21.60;99.90;;;;;;4905635;29;20059;-55
2022/07/23 11:29:30;;;;;;;3.03;0.80;;;21.80;99.90;;;;;;4904770;29;20052;-56
2022/07/23 11:31:57;;;;;;;1.83;0.90;;;21.80;99.90;;;;;;4905955;29;20541;-55
2022/07/23 11:34:38;;;;;;;3.33;1.08;;;21.70;99.90;;;;;;4905479;29;20499;-56
2022/07/23 11:37:06;;;;;;;4.07;0.90;;;21.80;99.90;;;;;;4906004;29;20042;-56
2022/07/23 11:39:32;;;;;;;2.75;0.98;;;21.70;99.90;;;;;;4905219;29;20670;-56
2022/07/23 11:41:59;;;;;;;2.67;0.90;;;21.60;99.90;;;;;;4904947;29;20048;-56
2022/07/23 11:44:48;;;;;;;5.05;1.00;;;21.40;99.90;;;;;;4904725;29;20059;-56
2022/07/23 11:47:13;;;;;;;3.13;0.90;;;21.50;99.90;;;;;;4905762;29;20044;-56
2022/07/23 11:50:02;;;;;;;3.67;1.02;;;21.20;99.90;;;;;;4904866;29;20063;-56
2022/07/23 11:52:29;;;;;;;1.33;0.85;;;21.10;99.90;;;;;;4904961;29;20099;-56
2022/07/23 11:55:00;;;;;;;2.25;0.93;;;20.90;99.90;;;;;;4905387;29;20048;-56
2022/07/23 11:57:29;;;;;;;3.60;1.02;;;21.20;99.90;;;;;;4904302;29;20048;-56
2022/07/23 11:59:58;;;;;;;2.05;1.10;;;21.20;99.90;;;;;;4905484;29;20185;-55
2022/07/23 12:02:24;;;;;;;4.60;1.63;;;21.30;99.90;;;;;;4905043;29;20579;-56
2022/07/23 12:04:52;;;;;;;2.33;1.20;;;21.10;99.90;;;;;;4904889;29;20056;-53
2022/07/23 12:07:35;;;;;;;5.03;1.30;;;21.10;99.90;;;;;;4912523;29;20067;-50
2022/07/23 12:10:04;;;;;;;4.85;0.90;;;21.00;99.90;;;;;;4905200;29;20103;-56
2022/07/23 12:12:43;;;;;;;3.33;1.27;;;20.90;99.90;;;;;;4904347;29;20052;-53
2022/07/23 12:15:11;;;;;;;3.40;1.10;;;21.10;99.90;;;;;;4905197;29;20060;-52
2022/07/23 12:17:39;;;;;;;4.80;1.45;;;21.00;99.90;;;;;;4904320;29;20051;-54
2022/07/23 12:20:07;;;;;;;3.40;1.15;;;20.50;99.90;;;;;;4905150;29;20044;-53
2022/07/23 12:22:36;;;;;;;2.13;1.10;;;20.70;99.90;;;;;;4887711;29;20048;-52
2022/07/23 12:25:09;;;;;;;3.13;1.15;;;20.60;99.90;;;;;;4905246;29;20159;-51
2022/07/23 12:27:35;;;;;;;5.78;1.52;;;20.60;99.90;;;;;;4904059;29;20051;-53
2022/07/23 12:30:20;;;;;;;5.35;1.73;;;20.50;99.90;;;;;;4905264;29;20076;-53
2022/07/23 12:32:47;;;;;;;1.85;1.05;;;20.50;99.90;;;;;;4904613;29;20139;-57
2022/07/23 12:35:13;;;;;;;3.15;1.40;;;20.40;99.90;;;;;;4904375;29;20543;-53
2022/07/23 12:37:42;;;;;;;6.70;1.17;;;20.30;99.90;;;;;;4904673;29;20054;-51
2022/07/23 12:40:37;;;;;;;4.80;1.30;;;20.40;99.90;;;;;;4904214;29;20246;-55
2022/07/23 12:43:17;;;;;;;4.88;1.20;;;20.60;99.90;;;;;;4904170;29;20055;-52
2022/07/23 12:46:05;;;;;;;2.83;1.30;;;20.70;99.90;;;;;;4904525;29;20056;-52
2022/07/23 12:48:52;;;;;;;3.85;1.20;;;21.10;99.90;;;;;;4904093;29;20047;-52
2022/07/23 12:51:26;;;;;;;3.13;1.02;;;21.60;99.90;;;;;;4904441;29;20105;-56
2022/07/23 12:53:57;;;;;;;11.02;1.88;;;22.20;99.90;;;;;;4904529;29;20048;-57